createdAt,value
2022-10-29T00:00:46.922Z,102070.25
2022-10-29T00:03:16.133Z,102069.91
2022-10-29T00:05:44.041Z,102073.53
2022-10-29T00:08:11.911Z,102079.53
2022-10-29T00:10:39.776Z,102086.41
2022-10-29T00:13:11.228Z,102087.13
2022-10-29T00:15:42.111Z,102086.06
2022-10-29T00:18:09.982Z,102087.78
2022-10-29T00:20:39.214Z,102084.69
2022-10-29T00:23:07.077Z,102087.09
2022-10-29T00:25:35.031Z,102097.22
2022-10-29T00:28:02.892Z,102092.94
2022-10-29T00:30:31.037Z,102097.56
2022-10-29T00:32:59.025Z,102099.31
2022-10-29T00:35:27.192Z,102092.75
2022-10-29T00:37:56.937Z,102097.06
2022-10-29T00:40:25.090Z,102092.75
2022-10-29T00:42:52.946Z,102089.16
2022-10-29T00:45:21.991Z,102082.63
2022-10-29T00:47:54.256Z,102088.63
2022-10-29T00:50:25.600Z,102078.19
2022-10-29T00:52:56.030Z,102081.78
2022-10-29T00:55:24.059Z,102079.53
2022-10-29T00:57:55.784Z,102090.53
2022-10-29T01:00:24.330Z,102077.47
2022-10-29T01:02:52.329Z,102065.47
2022-10-29T01:05:24.947Z,102057.56
2022-10-29T01:07:52.792Z,102048.09
2022-10-29T01:10:30.865Z,102058.59
2022-10-29T01:15:54.397Z,102072.00
2022-10-29T01:18:27.115Z,102081.25
2022-10-29T01:21:23.102Z,102082.47
2022-10-29T01:24:24.327Z,102077.16
2022-10-29T01:27:40.840Z,102081.78
2022-10-29T01:30:17.455Z,102073.88
2022-10-29T01:32:57.906Z,102067.66
2022-10-29T01:35:33.032Z,102079.69
2022-10-29T01:38:12.385Z,102066.13
2022-10-29T01:40:50.901Z,102066.84
2022-10-29T01:43:24.370Z,102070.78
2022-10-29T01:45:55.605Z,102070.44
2022-10-29T01:48:32.248Z,102075.56
2022-10-29T01:51:05.830Z,102061.66
2022-10-29T01:53:37.240Z,102048.97
2022-10-29T01:56:05.238Z,102027.16
2022-10-29T01:58:35.131Z,101999.34
2022-10-29T02:01:10.318Z,102005.69
2022-10-29T02:03:52.825Z,102017.72
2022-10-29T02:06:32.801Z,102031.13
2022-10-29T02:09:10.138Z,102023.72
2022-10-29T02:11:48.017Z,102028.38
2022-10-29T02:14:21.770Z,102022.88
2022-10-29T02:16:50.409Z,102009.47
2022-10-29T02:19:20.032Z,102013.59
2022-10-29T02:21:48.046Z,102011.00
2022-10-29T02:24:15.924Z,102008.09
2022-10-29T02:26:43.728Z,102006.72
2022-10-29T02:29:11.772Z,102003.81
2022-10-29T02:31:39.988Z,102004.31
2022-10-29T02:34:07.816Z,102005.84
2022-10-29T02:36:37.075Z,102005.00
2022-10-29T02:39:05.231Z,102012.06
2022-10-29T02:41:33.219Z,102013.09
2022-10-29T02:44:01.079Z,102018.03
2022-10-29T02:46:30.239Z,102018.06
2022-10-29T02:48:58.341Z,102004.66
2022-10-29T02:51:26.229Z,102010.00
2022-10-29T02:53:55.998Z,102005.34
2022-10-29T02:56:24.173Z,101994.88
2022-10-29T02:58:52.011Z,102002.63
2022-10-29T03:01:20.013Z,102012.19
2022-10-29T03:03:48.080Z,102014.13
2022-10-29T03:06:16.873Z,102016.69
2022-10-29T03:08:45.071Z,102005.00
2022-10-29T03:11:14.771Z,101994.88
2022-10-29T03:13:42.721Z,102011.19
2022-10-29T03:16:11.028Z,102015.66
2022-10-29T03:18:38.994Z,102019.75
2022-10-29T03:21:06.939Z,102025.06
2022-10-29T03:23:34.778Z,102017.72
2022-10-29T03:26:03.208Z,102012.50
2022-10-29T03:28:33.258Z,102007.72
2022-10-29T03:31:01.172Z,101994.50
2022-10-29T03:33:29.118Z,102002.25
2022-10-29T03:35:58.669Z,102001.22
2022-10-29T03:38:26.839Z,102004.22
2022-10-29T03:40:55.406Z,101999.44
2022-10-29T03:43:23.316Z,102005.94
2022-10-29T03:45:53.237Z,102002.31
2022-10-29T03:48:21.339Z,101994.25
2022-10-29T03:50:55.421Z,101999.22
2022-10-29T03:53:23.623Z,102001.75
2022-10-29T03:55:52.430Z,101992.81
2022-10-29T03:58:21.059Z,101999.00
2022-10-29T04:00:56.542Z,102017.03
2022-10-29T04:03:24.947Z,102014.09
2022-10-29T04:05:52.837Z,102014.47
2022-10-29T04:08:20.749Z,102013.44
2022-10-29T04:10:50.116Z,102020.16
2022-10-29T04:13:18.948Z,102015.00
2022-10-29T04:15:47.435Z,102004.69
2022-10-29T04:18:16.620Z,102001.91
2022-10-29T04:22:26.953Z,102005.31
2022-10-29T04:29:08.609Z,102018.06
2022-10-29T04:31:37.729Z,102013.06
2022-10-29T04:34:07.034Z,102005.00
2022-10-29T04:36:34.904Z,102013.91
2022-10-29T04:39:02.923Z,102023.34
2022-10-29T04:41:30.872Z,102029.81
2022-10-29T04:43:58.878Z,102027.75
2022-10-29T04:46:26.747Z,102025.78
2022-10-29T04:48:54.680Z,102027.75
2022-10-29T04:51:25.373Z,102020.66
2022-10-29T04:53:53.207Z,102019.13
2022-10-29T04:56:21.115Z,102022.75
2022-10-29T04:58:52.506Z,102021.25
2022-10-29T05:01:20.813Z,102027.41
2022-10-29T05:03:48.846Z,102033.22
2022-10-29T05:06:16.749Z,102037.91
2022-10-29T05:08:45.955Z,102036.31
2022-10-29T05:11:13.830Z,102034.22
2022-10-29T05:13:41.984Z,102028.22
2022-10-29T05:16:09.862Z,102017.03
2022-10-29T05:18:38.579Z,102015.44
2022-10-29T05:21:06.862Z,102003.19
2022-10-29T05:23:34.754Z,102004.06
2022-10-29T05:26:04.127Z,101998.03
2022-10-29T05:28:32.007Z,102001.94
2022-10-29T05:31:02.582Z,101997.13
2022-10-29T05:33:30.589Z,101997.63
2022-10-29T05:36:00.712Z,101992.44
2022-10-29T05:38:28.690Z,101993.66
2022-10-29T05:40:58.938Z,101990.22
2022-10-29T05:43:28.808Z,101989.34
2022-10-29T05:45:56.687Z,101985.41
2022-10-29T05:48:24.579Z,101983.16
2022-10-29T05:50:52.421Z,101985.53
2022-10-29T05:53:20.237Z,101983.13
2022-10-29T05:55:48.211Z,101997.38
2022-10-29T05:58:16.093Z,101995.25
2022-10-29T06:00:46.427Z,101990.72
2022-10-29T06:03:16.435Z,101997.94
2022-10-29T06:05:45.112Z,102000.28
2022-10-29T06:08:12.930Z,102002.66
2022-10-29T06:10:40.810Z,102011.97
2022-10-29T06:13:12.201Z,102012.72
2022-10-29T06:15:40.176Z,102008.69
2022-10-29T06:18:10.124Z,102014.25
2022-10-29T06:20:39.173Z,102002.19
2022-10-29T06:23:07.633Z,102009.13
2022-10-29T06:25:35.561Z,102007.22
2022-10-29T06:28:05.179Z,102002.78
2022-10-29T06:30:35.498Z,102003.69
2022-10-29T06:33:04.597Z,101997.03
2022-10-29T06:38:07.801Z,102005.75
2022-10-29T06:40:40.313Z,101996.72
2022-10-29T06:43:10.387Z,101999.97
2022-10-29T06:45:38.386Z,102005.19
2022-10-29T06:48:07.037Z,102010.13
2022-10-29T06:50:36.521Z,102008.75
2022-10-29T06:53:06.507Z,102005.63
2022-10-29T06:55:35.081Z,102002.03
2022-10-29T06:58:04.978Z,101995.34
2022-10-29T07:00:34.621Z,101999.66
2022-10-29T07:03:03.382Z,102003.59
2022-10-29T07:05:32.284Z,101999.31
2022-10-29T07:08:02.875Z,102002.88
2022-10-29T07:10:32.989Z,101997.91
2022-10-29T07:13:01.497Z,101977.81
2022-10-29T07:15:30.898Z,101977.66
2022-10-29T07:18:00.232Z,101985.38
2022-10-29T07:20:29.150Z,101994.16
2022-10-29T07:22:58.277Z,102001.00
2022-10-29T07:25:27.948Z,101992.44
2022-10-29T07:27:56.399Z,101986.78
2022-10-29T07:30:24.604Z,101978.91
2022-10-29T07:32:52.738Z,101980.44
2022-10-29T07:35:20.671Z,101970.19
2022-10-29T07:37:48.530Z,101960.59
2022-10-29T07:40:16.722Z,101965.78
2022-10-29T07:42:45.996Z,101953.25
2022-10-29T07:45:13.985Z,101960.31
2022-10-29T07:47:42.907Z,101964.25
2022-10-29T07:50:11.599Z,101962.38
2022-10-29T07:52:40.685Z,101967.91
2022-10-29T07:55:10.058Z,101972.34
2022-10-29T07:57:38.379Z,101974.56
2022-10-29T08:00:09.214Z,101986.25
2022-10-29T08:02:40.080Z,101982.16
2022-10-29T08:05:08.891Z,101979.75
2022-10-29T08:07:36.815Z,101974.28
2022-10-29T08:10:05.072Z,101973.78
2022-10-29T08:12:33.075Z,101961.56
2022-10-29T08:15:00.899Z,101951.44
2022-10-29T08:17:31.642Z,101938.03
2022-10-29T08:19:59.715Z,101946.28
2022-10-29T08:22:27.639Z,101956.09
2022-10-29T08:24:55.582Z,101954.88
2022-10-29T08:27:23.476Z,101962.25
2022-10-29T08:29:51.345Z,101965.34
2022-10-29T08:32:19.235Z,101958.63
2022-10-29T08:34:48.477Z,101961.59
2022-10-29T08:37:16.648Z,101960.53
2022-10-29T08:39:44.713Z,101977.88
2022-10-29T08:42:31.774Z,101968.44
2022-10-29T08:45:19.770Z,101978.03
2022-10-29T08:48:04.475Z,101970.84
2022-10-29T08:50:41.097Z,101961.75
2022-10-29T08:53:23.319Z,101962.25
2022-10-29T08:55:52.776Z,101965.00
2022-10-29T08:58:29.364Z,101957.63
2022-10-29T09:00:59.165Z,101969.13
2022-10-29T09:03:29.603Z,101960.38
2022-10-29T09:06:09.303Z,101959.69
2022-10-29T09:08:47.294Z,101976.66
2022-10-29T09:11:32.460Z,101980.09
2022-10-29T09:14:12.284Z,101984.75
2022-10-29T09:16:50.108Z,101984.75
2022-10-29T09:19:38.346Z,101982.34
2022-10-29T09:22:17.268Z,101993.81
2022-10-29T09:24:55.988Z,101989.38
2022-10-29T09:27:31.131Z,101994.00
2022-10-29T09:30:07.638Z,101984.56
2022-10-29T09:33:01.786Z,101984.88
2022-10-29T09:35:37.311Z,101980.34
2022-10-29T09:38:13.929Z,101976.59
2022-10-29T09:40:43.911Z,101972.81
2022-10-29T09:43:25.327Z,101975.41
2022-10-29T09:46:01.871Z,101971.28
2022-10-29T09:48:37.109Z,101959.94
2022-10-29T09:51:16.777Z,101960.66
2022-10-29T09:53:46.184Z,101959.94
2022-10-29T09:56:14.187Z,101958.00
2022-10-29T09:58:46.185Z,101951.34
2022-10-29T10:01:15.085Z,101959.22
2022-10-29T10:08:08.823Z,101959.72
2022-10-29T10:10:51.964Z,101947.56
2022-10-29T10:13:26.094Z,101945.97
2022-10-29T10:15:57.457Z,101943.78
2022-10-29T10:18:27.432Z,101941.69
2022-10-29T10:21:07.815Z,101938.75
2022-10-29T10:23:47.710Z,101917.59
2022-10-29T10:26:31.794Z,101910.22
2022-10-29T10:29:10.885Z,101924.31
2022-10-29T10:31:39.089Z,101918.09
2022-10-29T10:34:16.150Z,101910.88
2022-10-29T10:36:47.500Z,101912.25
2022-10-29T10:39:26.222Z,101918.06
2022-10-29T10:41:57.321Z,101917.13
2022-10-29T10:44:25.679Z,101923.41
2022-10-29T10:46:56.148Z,101918.78
2022-10-29T10:49:32.990Z,101915.63
2022-10-29T10:52:04.650Z,101904.56
2022-10-29T10:54:37.592Z,101900.53
2022-10-29T10:57:21.628Z,101893.19
2022-10-29T10:59:57.933Z,101891.31
2022-10-29T11:02:35.255Z,101888.19
2022-10-29T11:05:18.953Z,101883.81
2022-10-29T11:07:53.995Z,101879.69
2022-10-29T11:10:28.615Z,101877.75
2022-10-29T11:13:01.646Z,101878.78
2022-10-29T11:15:37.324Z,101882.16
2022-10-29T11:18:14.499Z,101885.78
2022-10-29T11:20:48.635Z,101876.25
2022-10-29T11:23:28.735Z,101859.97
2022-10-29T11:26:04.529Z,101852.38
2022-10-29T11:28:39.903Z,101841.63
2022-10-29T11:31:17.477Z,101833.59
2022-10-29T11:33:53.985Z,101824.53
2022-10-29T11:36:24.397Z,101827.28
2022-10-29T11:39:00.278Z,101823.25
2022-10-29T11:41:38.817Z,101827.31
2022-10-29T11:44:12.987Z,101818.66
2022-10-29T11:46:58.030Z,101824.78
2022-10-29T11:49:40.727Z,101815.56
2022-10-29T11:52:12.478Z,101822.88
2022-10-29T11:54:49.939Z,101815.69
2022-10-29T11:57:24.089Z,101811.09
2022-10-29T12:00:05.928Z,101809.13
2022-10-29T12:03:15.835Z,101810.34
2022-10-29T12:05:49.892Z,101811.97
2022-10-29T12:08:32.566Z,101798.28
2022-10-29T12:11:08.148Z,101800.88
2022-10-29T12:13:48.763Z,101787.72
2022-10-29T12:16:30.875Z,101787.81
2022-10-29T12:19:07.402Z,101795.16
2022-10-29T12:21:47.697Z,101792.78
2022-10-29T12:24:30.222Z,101790.09
2022-10-29T12:27:05.863Z,101780.19
2022-10-29T12:29:44.260Z,101787.22
2022-10-29T12:32:21.608Z,101771.53
2022-10-29T12:34:56.222Z,101769.25
2022-10-29T12:37:35.991Z,101766.31
2022-10-29T12:40:15.121Z,101772.94
2022-10-29T12:42:43.603Z,101771.22
2022-10-29T12:45:28.639Z,101760.31
2022-10-29T12:48:04.553Z,101743.34
2022-10-29T12:50:45.281Z,101748.28
2022-10-29T12:53:26.934Z,101743.31
2022-10-29T12:55:56.106Z,101742.53
2022-10-29T12:58:48.789Z,101740.09
2022-10-29T13:04:35.364Z,101726.50
2022-10-29T13:07:05.618Z,101717.16
2022-10-29T13:09:35.850Z,101702.72
2022-10-29T13:12:06.530Z,101703.56
2022-10-29T13:14:39.400Z,101702.50
2022-10-29T13:17:24.216Z,101703.19
2022-10-29T13:19:57.409Z,101714.22
2022-10-29T13:22:50.591Z,101719.75
2022-10-29T13:25:52.426Z,101719.59
2022-10-29T13:28:49.861Z,101717.50
2022-10-29T13:31:47.541Z,101702.03
2022-10-29T13:34:48.818Z,101705.66
2022-10-29T13:38:02.849Z,101706.31
2022-10-29T13:41:10.429Z,101705.91
2022-10-29T13:43:39.766Z,101683.59
2022-10-29T13:46:47.383Z,101686.78
2022-10-29T13:49:22.906Z,101689.97
2022-10-29T13:51:58.547Z,101676.66
2022-10-29T13:54:39.611Z,101665.78
2022-10-29T13:57:18.958Z,101657.53
2022-10-29T13:59:51.847Z,101641.19
2022-10-29T14:02:27.298Z,101637.16
2022-10-29T14:05:00.490Z,101629.09
2022-10-29T14:07:36.536Z,101618.13
2022-10-29T14:10:14.687Z,101621.50
2022-10-29T14:12:43.672Z,101623.59
2022-10-29T14:15:14.864Z,101629.53
2022-10-29T14:17:43.324Z,101631.47
2022-10-29T14:20:24.531Z,101632.91
2022-10-29T14:22:53.603Z,101622.94
2022-10-29T14:25:34.519Z,101651.69
2022-10-29T14:28:27.252Z,101654.34
2022-10-29T14:31:04.373Z,101654.75
2022-10-29T14:33:34.806Z,101644.72
2022-10-29T14:36:13.097Z,101642.41
2022-10-29T14:38:44.244Z,101635.00
2022-10-29T14:41:15.700Z,101634.59
2022-10-29T14:43:45.028Z,101638.41
2022-10-29T14:46:21.893Z,101650.50
2022-10-29T14:48:58.479Z,101651.56
2022-10-29T14:51:27.978Z,101647.09
2022-10-29T14:54:00.922Z,101643.00
2022-10-29T14:56:35.294Z,101637.31
2022-10-29T14:59:10.457Z,101627.97
2022-10-29T15:01:47.812Z,101631.16
2022-10-29T15:04:26.078Z,101632.69
2022-10-29T15:06:56.766Z,101631.38
2022-10-29T15:09:28.460Z,101637.53
2022-10-29T15:12:03.495Z,101643.09
2022-10-29T15:14:38.029Z,101645.81
2022-10-29T15:17:12.145Z,101637.97
2022-10-29T15:19:45.747Z,101638.22
2022-10-29T15:22:20.607Z,101633.91
2022-10-29T15:24:52.088Z,101633.09
2022-10-29T15:27:24.349Z,101630.03
2022-10-29T15:29:54.666Z,101623.22
2022-10-29T15:32:25.126Z,101627.88
2022-10-29T15:34:57.723Z,101623.22
2022-10-29T15:37:40.744Z,101618.94
2022-10-29T15:40:13.501Z,101622.13
2022-10-29T15:42:43.150Z,101610.81
2022-10-29T15:45:31.939Z,101624.88
2022-10-29T15:48:30.684Z,101621.66
2022-10-29T15:50:58.656Z,101617.16
2022-10-29T15:53:26.582Z,101612.94
2022-10-29T15:55:54.938Z,101616.50
2022-10-29T15:58:24.753Z,101614.56
2022-10-29T16:00:52.788Z,101619.00
2022-10-29T16:03:22.800Z,101616.00
2022-10-29T16:05:54.719Z,101608.59
2022-10-29T16:08:27.702Z,101612.41
2022-10-29T16:10:56.427Z,101612.81
2022-10-29T16:13:27.952Z,101605.78
2022-10-29T16:15:56.244Z,101604.25
2022-10-29T16:18:25.515Z,101612.16
2022-10-29T16:20:57.883Z,101606.19
2022-10-29T16:23:26.085Z,101611.03
2022-10-29T16:25:54.152Z,101605.53
2022-10-29T16:28:22.083Z,101604.66
2022-10-29T16:30:55.109Z,101604.66
2022-10-29T16:33:23.116Z,101602.75
2022-10-29T16:35:51.040Z,101610.59
2022-10-29T16:38:21.152Z,101605.06
2022-10-29T16:40:49.104Z,101605.94
2022-10-29T16:43:16.939Z,101603.16
2022-10-29T16:45:45.033Z,101598.31
2022-10-29T16:48:14.484Z,101592.53
2022-10-29T16:50:42.515Z,101605.47
2022-10-29T16:53:11.307Z,101596.16
2022-10-29T16:55:40.513Z,101595.28
2022-10-29T16:58:10.567Z,101591.88
2022-10-29T17:00:38.700Z,101589.31
2022-10-29T17:03:11.481Z,101603.13
2022-10-29T17:05:41.981Z,101602.81
2022-10-29T17:08:10.132Z,101592.06
2022-10-29T17:10:38.355Z,101599.72
2022-10-29T17:13:09.024Z,101595.44
2022-10-29T17:15:40.195Z,101596.69
2022-10-29T17:18:08.094Z,101602.03
2022-10-29T17:20:36.025Z,101597.53
2022-10-29T17:23:05.396Z,101596.44
2022-10-29T17:25:33.356Z,101599.59
2022-10-29T17:28:01.218Z,101602.38
2022-10-29T17:30:29.102Z,101596.41
2022-10-29T17:32:57.132Z,101596.41
2022-10-29T17:35:25.823Z,101597.88
2022-10-29T17:37:54.668Z,101595.06
2022-10-29T17:40:24.330Z,101595.66
2022-10-29T17:42:52.221Z,101583.91
2022-10-29T17:45:23.272Z,101589.00
2022-10-29T17:47:56.380Z,101590.91
2022-10-29T17:50:26.288Z,101595.22
2022-10-29T17:52:54.482Z,101593.94
2022-10-29T17:55:23.959Z,101585.03
2022-10-29T17:57:51.883Z,101588.88
2022-10-29T18:00:20.187Z,101586.25
2022-10-29T18:02:50.771Z,101584.16
2022-10-29T18:05:19.480Z,101585.03
2022-10-29T18:07:47.524Z,101582.50
2022-10-29T18:10:16.764Z,101583.59
2022-10-29T18:12:45.959Z,101584.69
2022-10-29T18:15:13.905Z,101587.28
2022-10-29T18:17:41.898Z,101581.31
2022-10-29T18:20:10.980Z,101589.53
2022-10-29T18:22:38.974Z,101582.13
2022-10-29T18:25:07.338Z,101580.88
2022-10-29T18:27:35.368Z,101583.84
2022-10-29T18:30:05.301Z,101576.78
2022-10-29T18:32:33.344Z,101581.94
2022-10-29T18:35:01.260Z,101581.25
2022-10-29T18:37:29.224Z,101578.31
2022-10-29T18:39:59.002Z,101578.25
2022-10-29T18:42:29.906Z,101580.22
2022-10-29T18:44:57.919Z,101583.44
2022-10-29T18:47:27.460Z,101575.97
2022-10-29T18:49:56.200Z,101581.72
2022-10-29T18:52:24.062Z,101577.00
2022-10-29T18:54:52.043Z,101578.50
2022-10-29T18:57:19.984Z,101570.91
2022-10-29T18:59:49.173Z,101580.63
2022-10-29T19:02:17.258Z,101579.19
2022-10-29T19:04:46.946Z,101567.47
2022-10-29T19:07:14.840Z,101568.91
2022-10-29T19:09:42.766Z,101567.03
2022-10-29T19:12:12.836Z,101565.13
2022-10-29T19:14:40.756Z,101562.75
2022-10-29T19:17:08.726Z,101563.00
2022-10-29T19:19:36.782Z,101558.75
2022-10-29T19:22:06.071Z,101556.78
2022-10-29T19:24:34.057Z,101556.78
2022-10-29T19:27:01.985Z,101552.31
2022-10-29T19:29:30.030Z,101546.22
2022-10-29T19:31:58.152Z,101545.34
2022-10-29T19:34:26.170Z,101551.47
2022-10-29T19:36:54.088Z,101538.53
2022-10-29T19:39:23.396Z,101539.38
2022-10-29T19:41:51.382Z,101542.34
2022-10-29T19:44:19.331Z,101540.81
2022-10-29T19:46:47.466Z,101540.81
2022-10-29T19:49:15.478Z,101540.66
2022-10-29T19:51:44.891Z,101541.50
2022-10-29T19:54:13.077Z,101542.16
2022-10-29T19:56:42.612Z,101551.47
2022-10-29T19:59:10.918Z,101554.88
2022-10-29T20:01:41.653Z,101564.19
2022-10-29T20:04:09.835Z,101573.31
2022-10-29T20:06:37.687Z,101574.38
2022-10-29T20:09:05.789Z,101560.13
2022-10-29T20:11:33.978Z,101561.59
2022-10-29T20:14:03.369Z,101561.38
2022-10-29T20:16:31.346Z,101564.94
2022-10-29T20:18:59.428Z,101553.25
2022-10-29T20:21:27.458Z,101556.84
2022-10-29T20:23:55.894Z,101557.25
2022-10-29T20:26:23.921Z,101549.19
2022-10-29T20:28:51.779Z,101556.78
2022-10-29T20:31:32.292Z,101552.81
2022-10-29T20:34:02.916Z,101547.88
2022-10-29T20:36:33.033Z,101553.09
2022-10-29T20:39:01.154Z,101552.63
2022-10-29T20:41:29.955Z,101549.50
2022-10-29T20:43:59.090Z,101557.31
2022-10-29T20:46:28.336Z,101549.63
2022-10-29T20:48:57.768Z,101552.00
2022-10-29T20:51:26.032Z,101562.53
2022-10-29T20:53:54.289Z,101554.50
2022-10-29T20:56:23.688Z,101560.38
2022-10-29T20:58:51.775Z,101550.19
2022-10-29T21:01:21.804Z,101550.59
2022-10-29T21:03:50.955Z,101558.47
2022-10-29T21:06:20.543Z,101558.00
2022-10-29T21:08:49.504Z,101551.84
2022-10-29T21:11:18.446Z,101553.28
2022-10-29T21:13:46.707Z,101560.28
2022-10-29T21:16:17.375Z,101554.34
2022-10-29T21:18:46.684Z,101561.94
2022-10-29T21:21:15.128Z,101547.69
2022-10-29T21:23:44.685Z,101545.63
2022-10-29T21:26:15.814Z,101540.75
2022-10-29T21:28:44.285Z,101536.09
2022-10-29T21:31:12.527Z,101540.75
2022-10-29T21:33:40.419Z,101532.75
2022-10-29T21:36:08.973Z,101540.38
2022-10-29T21:38:36.838Z,101542.06
2022-10-29T21:41:06.303Z,101537.63
2022-10-29T21:43:34.947Z,101540.09
2022-10-29T21:46:03.011Z,101539.34
2022-10-29T21:48:31.088Z,101547.50
2022-10-29T21:51:04.390Z,101555.59
2022-10-29T21:53:32.714Z,101543.34
2022-10-29T21:56:02.660Z,101545.91
2022-10-29T21:58:32.422Z,101537.91
2022-10-29T22:01:05.308Z,101536.13
2022-10-29T22:03:33.975Z,101543.72
2022-10-29T22:06:03.172Z,101543.72
2022-10-29T22:08:31.046Z,101546.66
2022-10-29T22:10:59.335Z,101544.75
2022-10-29T22:13:28.174Z,101542.31
2022-10-29T22:15:57.815Z,101542.50
2022-10-29T22:18:26.754Z,101550.25
2022-10-29T22:21:04.464Z,101542.50
2022-10-29T22:23:32.314Z,101540.66
2022-10-29T22:26:00.255Z,101533.19
2022-10-29T22:28:28.390Z,101531.31
2022-10-29T22:31:02.469Z,101534.53
2022-10-29T22:33:31.536Z,101527.88
2022-10-29T22:36:05.419Z,101533.94
2022-10-29T22:38:33.393Z,101531.19
2022-10-29T22:41:05.576Z,101535.84
2022-10-29T22:43:33.451Z,101531.69
2022-10-29T22:46:03.190Z,101542.00
2022-10-29T22:48:31.168Z,101541.47
2022-10-29T22:51:03.855Z,101546.97
2022-10-29T22:53:32.135Z,101540.09
2022-10-29T22:56:00.563Z,101537.16
2022-10-29T22:58:28.540Z,101536.50
2022-10-29T23:01:05.661Z,101534.59
2022-10-29T23:03:33.881Z,101533.25
2022-10-29T23:06:03.486Z,101527.50
2022-10-29T23:08:32.236Z,101531.84
2022-10-29T23:11:00.385Z,101531.84
2022-10-29T23:13:28.299Z,101535.38
2022-10-29T23:15:56.206Z,101526.91
2022-10-29T23:18:25.565Z,101529.88
2022-10-29T23:20:59.265Z,101533.25
2022-10-29T23:23:27.393Z,101530.91
2022-10-29T23:26:00.445Z,101529.56
2022-10-29T23:28:28.939Z,101532.25
2022-10-29T23:30:57.529Z,101529.69
2022-10-29T23:33:26.810Z,101527.78
2022-10-29T23:35:54.861Z,101533.88
2022-10-29T23:38:22.887Z,101539.00
2022-10-29T23:40:50.735Z,101536.03
2022-10-29T23:43:18.697Z,101544.41
2022-10-29T23:45:46.677Z,101546.22
2022-10-29T23:48:14.544Z,101550.28
2022-10-29T23:50:43.763Z,101554.47
2022-10-29T23:53:11.950Z,101557.16
2022-10-29T23:55:39.865Z,101555.91
2022-10-29T23:58:07.698Z,101561.13
